Aeroporto :
LOGIN :

Iscrizione | Disclaimer

   EN    FR    IT 

 










Sommario :    VFR   VFR Marginale   IFR   IFR Intensivo   IFR Molto Intensivo
Visibilità : 
Base nubi : 
>= 8 km
>= 3000ft
5 / 8 km
1000 / 3000 ft
1500m / 5 km
500 / 1000 ft
800 / 1500m
200 / 500 ft
< 800m
< 200 ft
Simboli :   Temporali  Nebbia  Neve Forte  Precipitazioni Forti  Vento > 20 kt
SIGMETs :   Varie  Temporali  Ghiacco  Turbolenza  Onda orograficha  Ceneri Vulcaniche






- Altitudine del aeroporto : 574 ft
- Codice IATA : TEQ


LTBU - Corlu

ULTIMO METAR :
  • 171850Z 04006KT CAVOK 03/02 Q1025 RMK RWY22 03007KT

METARs OBSOLETI :
  • 171820Z 05009KT CAVOK 03/02 Q1025 RMK RWY22 05007KT
  • 171750Z 05009KT CAVOK 04/01 Q1025 RMK RWY22 03008KT
  • 171720Z 04009KT CAVOK 04/01 Q1025 RMK RWY22 03006KT
  • 171650Z 04008KT CAVOK 05/01 Q1025 RMK RWY22 03008KT
  • 171620Z 11005KT CAVOK 06/02 Q1025 RMK RWY22 07004KT

TAF TAF LTBU
Valido dal 17 a 18 ore il 18 a 18 ore UTC


171640Z 1718/1818 VRB02KT 9999 SCT020
BECMG 1720/1723 2500 BCFG BKN010
BECMG 1723/1802 0400 FG VV002
BECMG 1806/1808 3500 BR SCT015
BECMG 1808/1810 CAVOK



MetMap, La meteo Aeronautica in un colpo d'occhio ! - Copyright ORBIFLY Dicembre 2007 - Disclaimer

ORBIFLY MET'MAP TEAM :

Programmazione e sviluppo : Alexandra Zaïnal
Concezione : Baudouin d'Aumeries
Aiuto per la programmazione : Marc-Olivier Méhu
Supporto tecnico e logistico : Manuel Goepfert
Aiuto per la traduzione : Arnaldo La Scala

Contatto : metmap@orbifly.com




FONTI E CREDITI :

   NOAA